Time;durP1;ratioP1;P1;durP2;ratioP2;P2;SDS_P1;SDS_P2;PMS_P1;PMS_P2;Temp;Humidity;BMP_temperature;BMP_pressure;BME280_temperature;BME280_humidity;BME280_pressure;Samples;Min_cycle;Max_cycle;Signal;HPM_P1;HPM_P2
2022/09/29 00:01:28;;;;;;;9.80;8.70;;;;;;;7.84;91.82;98940.30;87168;1298;22525;-78
2022/09/29 00:03:34;;;;;;;10.70;9.20;;;;;;;7.84;91.89;98943.63;87191;1306;22461;-76
2022/09/29 00:05:40;;;;;;;13.90;10.10;;;;;;;7.85;92.19;98940.96;87183;1291;22874;-80
2022/09/29 00:07:45;;;;;;;10.90;9.60;;;;;;;7.88;92.42;98938.54;87255;1278;22545;-80
2022/09/29 00:09:52;;;;;;;10.50;9.00;;;;;;;7.92;92.69;98937.48;87244;1305;24264;-79
2022/09/29 00:11:58;;;;;;;10.30;8.50;;;;;;;7.95;92.63;98935.42;87142;1284;22496;-78
2022/09/29 00:14:04;;;;;;;12.70;8.40;;;;;;;7.95;92.52;98940.10;87197;1282;22914;-77
2022/09/29 00:16:11;;;;;;;8.90;8.00;;;;;;;7.94;92.64;98935.30;87268;1288;22472;-79
2022/09/29 00:18:16;;;;;;;9.40;8.40;;;;;;;7.99;92.88;98940.29;87242;1303;22462;-78
2022/09/29 00:20:22;;;;;;;9.30;7.30;;;;;;;8.03;93.03;98938.34;87190;1285;26574;-81
2022/09/29 00:22:28;;;;;;;8.60;7.80;;;;;;;8.07;92.95;98939.35;87226;1278;22457;-78
2022/09/29 00:24:36;;;;;;;9.50;8.60;;;;;;;8.09;92.96;98940.78;87216;1290;25245;-80
2022/09/29 00:26:41;;;;;;;8.60;7.80;;;;;;;8.13;93.01;98938.66;87203;1281;22474;-80
2022/09/29 00:28:51;;;;;;;8.10;7.30;;;;;;;8.16;93.03;98941.67;87227;1306;22474;-80
2022/09/29 00:30:58;;;;;;;9.90;6.60;;;;;;;8.18;92.89;98942.23;87270;1306;22477;-81
2022/09/29 00:33:04;;;;;;;8.30;7.50;;;;;;;8.21;92.95;98944.52;87187;1282;22466;-77
2022/09/29 00:35:11;;;;;;;8.30;7.20;;;;;;;8.25;93.16;98941.90;87243;1284;26567;-78
2022/09/29 00:37:17;;;;;;;9.40;8.40;;;;;;;8.26;93.02;98942.34;87224;1284;22479;-79
2022/09/29 00:39:23;;;;;;;10.60;8.30;;;;;;;8.27;93.02;98942.27;87154;1306;22512;-79
2022/09/29 00:41:31;;;;;;;9.10;8.20;;;;;;;8.29;93.18;98945.14;87155;1301;22939;-79
2022/09/29 00:43:56;;;;;;;16.60;8.80;;;;;;;8.31;93.09;98943.14;87150;1306;22511;-80
2022/09/29 00:46:02;;;;;;;9.70;8.10;;;;;;;8.33;93.15;98948.79;87261;1300;22482;-77
2022/09/29 00:48:11;;;;;;;10.90;9.80;;;;;;;8.33;93.07;98945.66;87199;1306;22525;-76
2022/09/29 00:50:21;;;;;;;10.30;9.20;;;;;;;8.35;93.00;98950.61;87249;1297;22581;-79
2022/09/29 00:52:29;;;;;;;9.20;8.20;;;;;;;8.35;93.14;98950.92;87157;1282;22480;-79
2022/09/29 00:54:40;;;;;;;11.70;9.40;;;;;;;8.36;93.18;98945.66;87192;1303;22476;-83
2022/09/29 00:56:50;;;;;;;9.90;8.90;;;;;;;8.36;92.87;98948.64;87201;1298;25324;-79
2022/09/29 00:58:57;;;;;;;11.20;9.60;;;;;;;8.36;93.01;98953.33;87082;1280;22468;-77
2022/09/29 01:01:03;;;;;;;13.50;9.60;;;;;;;8.37;93.04;98954.67;87219;1306;22454;-78
2022/09/29 01:03:11;;;;;;;9.20;8.30;;;;;;;8.37;92.87;98954.00;87209;1280;22461;-78
2022/09/29 01:05:24;;;;;;;10.20;9.20;;;;;;;8.35;92.67;98953.39;87224;1285;22481;-79
2022/09/29 01:07:33;;;;;;;10.00;8.80;;;;;;;8.33;92.78;98954.85;87189;1294;22470;-78
2022/09/29 01:09:39;;;;;;;11.80;8.90;;;;;;;8.33;92.95;98955.90;87246;1284;22514;-77
2022/09/29 01:11:47;;;;;;;9.40;8.20;;;;;;;8.31;92.70;98956.87;87209;1284;22451;-78
2022/09/29 01:13:52;;;;;;;14.00;9.10;;;;;;;8.29;92.71;98955.94;87172;1284;27005;-77
2022/09/29 01:15:58;;;;;;;12.70;8.20;;;;;;;8.29;92.79;98958.20;87228;1306;22453;-80
2022/09/29 01:18:05;;;;;;;10.80;8.70;;;;;;;8.25;92.47;98958.54;87184;1285;25523;-79
2022/09/29 01:20:14;;;;;;;9.60;8.00;;;;;;;8.23;92.53;98962.64;87218;1306;22482;-78
2022/09/29 01:22:45;;;;;;;8.30;7.20;;;;;;;8.21;92.54;98962.04;87180;1285;22457;-80
2022/09/29 01:25:22;;;;;;;9.90;7.20;;;;;;;8.16;92.36;98968.23;87127;1306;23870;-79
2022/09/29 01:27:41;;;;;;;11.90;9.10;;;;;;;8.09;92.13;98972.05;87198;1281;22458;-80
2022/09/29 01:30:07;;;;;;;10.20;8.80;;;;;;;8.04;92.28;98972.11;87217;1289;24475;-79
2022/09/29 01:32:17;;;;;;;8.20;7.10;;;;;;;7.98;92.10;98973.48;87179;1281;22526;-80
2022/09/29 01:34:28;;;;;;;9.70;8.00;;;;;;;7.92;92.19;98973.92;87066;1301;25287;-78
2022/09/29 01:36:41;;;;;;;11.80;7.70;;;;;;;7.87;92.00;98980.27;87182;1278;22505;-77
2022/09/29 01:38:57;;;;;;;9.00;7.60;;;;;;;7.81;92.05;98981.80;87156;1285;22519;-80
2022/09/29 01:41:09;;;;;;;7.30;6.60;;;;;;;7.76;92.17;98985.84;87161;1287;22493;-77
2022/09/29 01:43:17;;;;;;;8.60;7.70;;;;;;;7.72;92.29;98980.83;87204;1282;22454;-77
2022/09/29 01:45:26;;;;;;;10.80;7.80;;;;;;;7.71;92.51;98982.45;87244;1303;22470;-75
2022/09/29 01:47:35;;;;;;;8.70;7.60;;;;;;;7.68;92.66;98982.21;87205;1298;22463;-77
2022/09/29 01:49:43;;;;;;;8.50;7.00;;;;;;;7.67;92.46;98986.81;87220;1294;22815;-77
2022/09/29 01:51:52;;;;;;;11.20;7.70;;;;;;;7.63;92.40;98986.81;87181;1293;22461;-78
2022/09/29 01:54:06;;;;;;;8.40;7.30;;;;;;;7.60;92.39;98987.14;87163;1298;22496;-76
2022/09/29 01:56:33;;;;;;;9.00;7.70;;;;;;;7.56;92.46;98984.04;87192;1284;25278;-79
2022/09/29 01:58:43;;;;;;;9.80;7.70;;;;;;;7.49;92.43;98989.73;87171;1284;25182;-79
2022/09/29 02:00:51;;;;;;;8.90;7.90;;;;;;;7.48;92.75;98991.18;87154;1298;22471;-80
2022/09/29 02:02:58;;;;;;;8.00;7.20;;;;;;;7.47;92.85;98991.02;87275;1305;22478;-80
2022/09/29 02:05:07;;;;;;;9.50;7.70;;;;;;;7.47;93.08;98988.81;87234;1304;22475;-79
2022/09/29 02:07:19;;;;;;;8.70;7.80;;;;;;;7.46;93.17;98984.31;87191;1275;22501;-80
2022/09/29 02:09:34;;;;;;;10.00;8.00;;;;;;;7.47;93.36;98985.99;87198;1300;22514;-80
2022/09/29 02:11:40;;;;;;;8.80;7.50;;;;;;;7.48;93.41;98990.80;87265;1298;22466;-78
2022/09/29 02:13:48;;;;;;;15.40;8.50;;;;;;;7.50;93.52;98992.66;87195;1289;22467;-81
2022/09/29 02:15:55;;;;;;;8.30;6.90;;;;;;;7.51;93.55;98995.88;87168;1289;25284;-77
2022/09/29 02:18:06;;;;;;;9.80;7.40;;;;;;;7.51;93.46;98996.77;87164;1306;22507;-78
2022/09/29 02:20:13;;;;;;;11.10;7.60;;;;;;;7.49;93.53;99000.13;87205;1280;22497;-78
2022/09/29 02:22:18;;;;;;;9.10;7.00;;;;;;;7.49;93.54;99000.65;87189;1281;22466;-76
2022/09/29 02:24:24;;;;;;;8.50;7.40;;;;;;;7.48;93.52;98998.79;87176;1298;22473;-78
2022/09/29 02:26:34;;;;;;;8.40;7.50;;;;;;;7.47;93.44;99004.58;87266;1306;25995;-80
2022/09/29 02:28:41;;;;;;;8.50;7.70;;;;;;;7.45;93.51;99009.20;87197;1301;22536;-82
2022/09/29 02:30:47;;;;;;;8.10;7.00;;;;;;;7.44;93.46;99013.95;87252;1306;22461;-82
2022/09/29 02:32:55;;;;;;;7.30;6.50;;;;;;;7.43;93.54;99010.15;87167;1298;25887;-80
2022/09/29 02:35:07;;;;;;;10.30;7.10;;;;;;;7.40;93.26;99009.05;87243;1289;22472;-79
2022/09/29 02:37:42;;;;;;;8.90;7.90;;;;;;;7.40;93.64;99012.38;87271;1298;22591;-80
2022/09/29 02:39:54;;;;;;;9.90;8.90;;;;;;;7.45;94.10;99016.13;87221;1305;22453;-80
2022/09/29 02:42:07;;;;;;;11.40;7.90;;;;;;;7.49;94.22;99017.83;87175;1306;22578;-80
2022/09/29 02:44:24;;;;;;;9.90;7.60;;;;;;;7.55;94.39;99023.48;87183;1304;24322;-80
2022/09/29 02:46:42;;;;;;;9.10;7.20;;;;;;;7.61;94.49;99027.54;87218;1291;22514;-80
2022/09/29 02:49:19;;;;;;;10.40;8.00;;;;;;;7.67;94.44;99035.41;87051;1306;26460;-79
2022/09/29 02:51:26;;;;;;;11.10;8.80;;;;;;;7.72;94.53;99033.56;87035;1297;22539;-79
2022/09/29 02:53:47;;;;;;;11.00;8.80;;;;;;;7.77;94.52;99036.10;87102;1282;26484;-77
2022/09/29 02:56:01;;;;;;;10.20;8.40;;;;;;;7.83;94.41;99036.73;87137;1292;22874;-76
2022/09/29 02:58:12;;;;;;;9.90;8.70;;;;;;;7.86;94.44;99041.23;87107;1292;22499;-76
2022/09/29 03:00:18;;;;;;;9.60;8.50;;;;;;;7.88;94.26;99046.36;87236;1299;22459;-79
2022/09/29 03:02:35;;;;;;;11.20;9.70;;;;;;;7.90;94.05;99043.17;87204;1306;22461;-79
2022/09/29 03:05:17;;;;;;;11.00;9.90;;;;;;;7.92;94.16;99036.45;87164;1288;22465;-79
2022/09/29 03:07:44;;;;;;;11.00;10.00;;;;;;;7.93;94.02;99028.08;87087;1288;24577;-78
2022/09/29 03:09:51;;;;;;;10.90;9.80;;;;;;;7.92;93.89;99027.41;87063;1302;22484;-78
2022/09/29 03:11:57;;;;;;;10.30;9.30;;;;;;;7.91;93.61;99030.61;87208;1285;22437;-78
2022/09/29 03:14:05;;;;;;;12.50;9.70;;;;;;;7.90;93.61;99033.79;87179;1306;22530;-80
2022/09/29 03:16:11;;;;;;;10.80;9.60;;;;;;;7.87;93.49;99028.88;87258;1288;22743;-78
2022/09/29 03:18:17;;;;;;;10.70;9.00;;;;;;;7.81;93.06;99037.15;87373;1284;22444;-73
2022/09/29 03:20:28;;;;;;;9.40;8.40;;;;;;;7.73;92.69;99036.47;87401;1302;24257;-80
2022/09/29 03:22:34;;;;;;;10.00;9.10;;;;;;;7.67;92.70;99046.16;87102;1297;25618;-81
2022/09/29 03:24:40;;;;;;;9.40;8.40;;;;;;;7.61;92.76;99053.36;87212;1305;25872;-81
2022/09/29 03:26:53;;;;;;;9.30;8.40;;;;;;;7.58;92.74;99062.05;87182;1287;22462;-79
2022/09/29 03:28:59;;;;;;;11.00;8.30;;;;;;;7.54;92.86;99071.10;87219;1306;22535;-81
2022/09/29 03:35:27;;;;;;;10.10;9.10;;;;;;;7.48;93.24;99071.87;87465;1272;22453;-80
2022/09/29 03:37:33;;;;;;;9.50;8.70;;;;;;;7.47;93.18;99065.11;87435;1303;22477;-79
2022/09/29 03:39:38;;;;;;;11.10;10.00;;;;;;;7.48;93.30;99059.19;87252;1304;22481;-80
2022/09/29 03:41:44;;;;;;;9.90;8.90;;;;;;;7.48;93.46;99062.46;87246;1299;22470;-78
2022/09/29 03:43:50;;;;;;;9.90;8.90;;;;;;;7.48;93.49;99063.52;87268;1300;22600;-79
2022/09/29 03:45:56;;;;;;;10.50;8.40;;;;;;;7.48;93.45;99067.51;87390;1303;26429;-78
2022/09/29 03:48:02;;;;;;;12.40;8.50;;;;;;;7.47;93.43;99065.31;87389;1303;22476;-78
2022/09/29 03:50:12;;;;;;;11.20;8.70;;;;;;;7.45;93.42;99064.52;87212;1298;25381;-75
2022/09/29 03:52:18;;;;;;;10.30;8.80;;;;;;;7.45;93.47;99064.55;87177;1306;26517;-80
2022/09/29 03:54:26;;;;;;;9.30;8.30;;;;;;;7.45;93.46;99071.48;87283;1280;22464;-79
2022/09/29 03:56:32;;;;;;;9.30;7.70;;;;;;;7.44;93.38;99074.13;87262;1278;22535;-75
2022/09/29 03:58:37;;;;;;;9.60;8.20;;;;;;;7.44;93.42;99076.23;87124;1305;24549;-75
2022/09/29 04:00:43;;;;;;;9.60;8.70;;;;;;;7.43;93.41;99079.19;87266;1286;22532;-79
2022/09/29 04:02:49;;;;;;;8.90;8.00;;;;;;;7.44;93.45;99077.77;87284;1278;25572;-78
2022/09/29 04:04:54;;;;;;;9.90;8.90;;;;;;;7.45;93.55;99074.81;87311;1279;22750;-80
2022/09/29 04:07:00;;;;;;;9.40;8.50;;;;;;;7.44;93.44;99075.52;87272;1303;22452;-78
2022/09/29 04:09:06;;;;;;;11.20;8.60;;;;;;;7.40;93.25;99072.58;87215;1288;22463;-78
2022/09/29 04:11:11;;;;;;;9.10;8.30;;;;;;;7.35;93.18;99069.86;87215;1280;22462;-78
2022/09/29 04:13:20;;;;;;;9.40;8.50;;;;;;;7.34;93.42;99069.38;87242;1284;22495;-78
2022/09/29 04:15:26;;;;;;;8.80;8.00;;;;;;;7.35;93.63;99070.05;87202;1299;22552;-78
2022/09/29 04:17:31;;;;;;;8.90;8.00;;;;;;;7.36;93.63;99069.67;87220;1303;25407;-78
2022/09/29 04:19:38;;;;;;;8.70;7.90;;;;;;;7.35;93.69;99073.14;87218;1303;24264;-80
2022/09/29 04:21:44;;;;;;;9.90;8.90;;;;;;;7.35;93.61;99076.27;87261;1303;22493;-78
2022/09/29 04:23:50;;;;;;;11.50;8.80;;;;;;;7.35;93.55;99077.83;87241;1303;26541;-77
2022/09/29 04:25:58;;;;;;;10.80;8.60;;;;;;;7.35;93.57;99075.42;87287;1303;22432;-79
2022/09/29 04:28:08;;;;;;;9.40;8.50;;;;;;;7.34;93.50;99083.27;87247;1306;22470;-81
2022/09/29 04:30:17;;;;;;;9.40;8.60;;;;;;;7.36;93.64;99083.89;87196;1295;23020;-81
2022/09/29 04:32:24;;;;;;;9.00;8.10;;;;;;;7.38;93.82;99086.89;87164;1306;22466;-77
2022/09/29 04:34:29;;;;;;;9.50;8.60;;;;;;;7.39;93.83;99087.52;87269;1303;22461;-79
2022/09/29 04:36:35;;;;;;;10.80;9.30;;;;;;;7.42;93.88;99090.35;87110;1293;22886;-77
2022/09/29 04:38:41;;;;;;;10.70;9.60;;;;;;;7.44;93.92;99090.63;87243;1303;25474;-78
2022/09/29 04:40:48;;;;;;;9.60;8.60;;;;;;;7.46;94.02;99094.50;87237;1303;22518;-78
2022/09/29 04:42:54;;;;;;;10.60;9.60;;;;;;;7.49;94.06;99095.61;87245;1300;26619;-79
2022/09/29 04:44:59;;;;;;;11.30;10.20;;;;;;;7.49;93.76;99098.70;87245;1303;22451;-79
2022/09/29 04:47:05;;;;;;;9.70;8.80;;;;;;;7.51;94.17;99101.21;87236;1303;26371;-79
2022/09/29 04:49:14;;;;;;;10.80;9.60;;;;;;;7.55;94.17;99102.64;87222;1309;24145;-79
2022/09/29 04:51:19;;;;;;;10.30;9.00;;;;;;;7.57;94.04;99102.52;87224;1303;22780;-78
2022/09/29 04:53:24;;;;;;;9.90;8.70;;;;;;;7.58;93.99;99102.98;87227;1288;22461;-81
2022/09/29 04:55:30;;;;;;;8.70;7.90;;;;;;;7.59;94.02;99106.94;87221;1290;22857;-77
2022/09/29 04:57:36;;;;;;;10.60;9.60;;;;;;;7.62;94.17;99108.67;87245;1304;24029;-78
2022/09/29 04:59:42;;;;;;;10.40;9.30;;;;;;;7.65;94.11;99103.85;87234;1301;25502;-78
2022/09/29 05:01:50;;;;;;;10.70;9.70;;;;;;;7.68;94.13;99102.15;87169;1306;23613;-80
2022/09/29 05:03:56;;;;;;;9.30;8.40;;;;;;;7.72;94.22;99101.30;87250;1294;22454;-79
2022/09/29 05:06:02;;;;;;;10.00;8.70;;;;;;;7.76;94.23;99103.00;87218;1289;22457;-77
2022/09/29 05:08:07;;;;;;;10.60;9.00;;;;;;;7.80;94.14;99098.15;87224;1303;24292;-80
2022/09/29 05:10:13;;;;;;;11.00;9.90;;;;;;;7.82;94.05;99103.05;87241;1308;25403;-78
2022/09/29 05:12:19;;;;;;;11.60;9.60;;;;;;;7.85;94.14;99106.77;86810;1304;581551;-75
2022/09/29 05:14:25;;;;;;;12.60;9.80;;;;;;;7.86;93.84;99102.58;87209;1308;25685;-78
2022/09/29 05:16:31;;;;;;;11.70;9.60;;;;;;;7.87;94.01;99104.25;87269;1309;22475;-79
2022/09/29 05:18:37;;;;;;;11.20;10.10;;;;;;;7.89;94.03;99114.39;87238;1309;22463;-80
2022/09/29 05:20:42;;;;;;;11.30;9.90;;;;;;;7.91;93.98;99126.27;87268;1303;25323;-79
2022/09/29 05:22:48;;;;;;;10.90;9.80;;;;;;;7.91;93.92;99118.42;87201;1303;24306;-79
2022/09/29 05:25:09;;;;;;;10.70;9.60;;;;;;;7.93;93.95;99119.38;87296;1309;23959;-79
2022/09/29 05:27:40;;;;;;;11.90;10.70;;;;;;;7.95;93.95;99132.69;87268;1307;22452;-77
2022/09/29 05:29:52;;;;;;;11.20;10.10;;;;;;;7.97;93.94;99137.11;87240;1303;23894;-79
2022/09/29 05:32:02;;;;;;;14.20;10.50;;;;;;;7.99;94.09;99130.91;87162;1312;22486;-79
2022/09/29 05:34:07;;;;;;;11.30;10.20;;;;;;;8.04;94.16;99136.27;87265;1291;26562;-78
2022/09/29 05:36:23;;;;;;;10.70;9.70;;;;;;;8.07;94.16;99140.95;87150;1310;23823;-77
2022/09/29 05:38:28;;;;;;;13.80;11.20;;;;;;;8.09;94.05;99140.72;87247;1302;22507;-80
2022/09/29 05:40:44;;;;;;;10.70;9.60;;;;;;;8.12;94.19;99141.94;87269;1304;22653;-79
2022/09/29 05:43:28;;;;;;;11.50;10.20;;;;;;;8.15;94.05;99139.92;87296;1301;22459;-79
2022/09/29 05:46:04;;;;;;;12.80;10.70;;;;;;;8.18;94.19;99142.20;87235;1282;22465;-78
2022/09/29 05:48:14;;;;;;;11.10;9.70;;;;;;;8.22;94.12;99147.73;87146;1309;22481;-79
2022/09/29 05:50:22;;;;;;;15.10;10.40;;;;;;;8.23;94.14;99151.33;87247;1304;25407;-78
2022/09/29 05:52:40;;;;;;;12.40;10.90;;;;;;;8.28;94.31;99150.59;87235;1302;22576;-79
2022/09/29 05:54:49;;;;;;;12.00;10.70;;;;;;;8.31;94.09;99154.44;87245;1304;22456;-78
2022/09/29 05:56:56;;;;;;;11.50;10.40;;;;;;;8.33;93.99;99159.38;87254;1301;22478;-80
2022/09/29 05:59:02;;;;;;;12.00;10.30;;;;;;;8.35;94.06;99158.23;87171;1306;22471;-80
2022/09/29 06:01:09;;;;;;;11.80;10.60;;;;;;;8.38;93.92;99161.61;87130;1306;22450;-77
2022/09/29 06:03:15;;;;;;;11.40;10.30;;;;;;;8.39;93.79;99158.78;87229;1301;22521;-77
2022/09/29 06:05:21;;;;;;;11.90;10.70;;;;;;;8.41;93.87;99161.10;87255;1302;22471;-77
2022/09/29 06:07:27;;;;;;;11.80;10.00;;;;;;;8.43;93.79;99166.05;87205;1303;22459;-80
2022/09/29 06:09:35;;;;;;;16.50;10.90;;;;;;;8.42;93.54;99169.20;87245;1304;22484;-78
2022/09/29 06:11:40;;;;;;;13.20;11.80;;;;;;;8.43;93.44;99172.84;87240;1303;22472;-81
2022/09/29 06:13:47;;;;;;;12.10;10.90;;;;;;;8.44;93.45;99173.30;87149;1306;24447;-81
2022/09/29 06:15:53;;;;;;;14.00;11.90;;;;;;;8.45;93.70;99172.86;87261;1309;22446;-78
2022/09/29 06:17:59;;;;;;;12.80;11.30;;;;;;;8.48;93.76;99171.86;87251;1289;22480;-82
2022/09/29 06:20:08;;;;;;;12.70;11.50;;;;;;;8.51;93.90;99170.65;87235;1304;22563;-80
2022/09/29 06:22:13;;;;;;;13.10;11.70;;;;;;;8.56;93.87;99169.25;87315;1304;26491;-79
2022/09/29 06:24:19;;;;;;;12.90;11.30;;;;;;;8.60;93.76;99179.11;87250;1304;22862;-80
2022/09/29 06:26:24;;;;;;;12.10;10.80;;;;;;;8.62;93.62;99181.10;87249;1303;22459;-80
2022/09/29 06:28:30;;;;;;;16.40;11.60;;;;;;;8.63;93.53;99185.73;87259;1295;22480;-80
2022/09/29 06:30:37;;;;;;;18.30;12.80;;;;;;;8.65;93.56;99190.33;87228;1283;22472;-80
2022/09/29 06:32:43;;;;;;;13.80;12.50;;;;;;;8.66;93.42;99188.86;87244;1303;24649;-78
2022/09/29 06:39:39;;;;;;;14.10;12.40;;;;;;;8.77;93.66;99192.85;87266;1287;25267;-81
2022/09/29 06:41:52;;;;;;;17.00;11.90;;;;;;;8.82;93.52;99192.65;87249;1288;25387;-81
2022/09/29 06:43:57;;;;;;;18.30;12.60;;;;;;;8.84;93.40;99192.20;87248;1303;23850;-81
2022/09/29 06:46:04;;;;;;;15.20;13.40;;;;;;;8.86;93.25;99189.83;87201;1307;25709;-80
2022/09/29 06:48:10;;;;;;;15.90;13.00;;;;;;;8.89;93.39;99191.91;87241;1303;22461;-81
2022/09/29 06:50:16;;;;;;;14.20;12.80;;;;;;;8.93;93.39;99192.95;87251;1290;22468;-79
2022/09/29 06:52:21;;;;;;;14.40;13.00;;;;;;;8.98;93.42;99192.70;87313;1304;22505;-81
2022/09/29 06:54:27;;;;;;;13.50;12.10;;;;;;;9.04;93.30;99192.40;87326;1292;24193;-79
2022/09/29 06:56:33;;;;;;;13.70;12.30;;;;;;;9.07;92.80;99201.11;87319;1289;22448;-77
2022/09/29 06:58:39;;;;;;;13.50;12.00;;;;;;;9.09;92.61;99208.86;87227;1275;22445;-78
2022/09/29 07:00:44;;;;;;;12.80;11.50;;;;;;;9.11;92.44;99214.14;87205;1295;22510;-78
2022/09/29 07:02:50;;;;;;;15.00;11.90;;;;;;;9.15;92.58;99217.25;87230;1303;22560;-76
2022/09/29 07:04:56;;;;;;;12.90;11.60;;;;;;;9.19;92.53;99216.17;87227;1303;22453;-79
2022/09/29 07:07:01;;;;;;;13.70;12.40;;;;;;;9.23;92.54;99218.23;87211;1291;25229;-77
2022/09/29 07:09:09;;;;;;;19.20;11.60;;;;;;;9.25;92.58;99219.33;87137;1306;23730;-78
2022/09/29 07:11:15;;;;;;;19.90;12.50;;;;;;;9.26;91.98;99224.16;87235;1285;22462;-78
2022/09/29 07:13:21;;;;;;;12.50;11.20;;;;;;;9.26;91.73;99225.90;87145;1306;22487;-77
2022/09/29 07:15:30;;;;;;;10.80;9.70;;;;;;;9.26;91.48;99227.98;87083;1306;22471;-78
2022/09/29 07:17:37;;;;;;;12.40;10.90;;;;;;;9.27;91.61;99225.70;87233;1291;22546;-76
2022/09/29 07:19:43;;;;;;;12.90;11.10;;;;;;;9.31;91.68;99225.31;87183;1305;22617;-78
2022/09/29 07:21:49;;;;;;;12.70;11.20;;;;;;;9.36;91.56;99226.44;87243;1300;25270;-78
2022/09/29 07:23:54;;;;;;;10.70;9.70;;;;;;;9.43;91.71;99229.59;87252;1290;22496;-78
2022/09/29 07:26:00;;;;;;;11.60;10.50;;;;;;;9.47;91.57;99234.05;87250;1304;23815;-80
2022/09/29 07:28:06;;;;;;;11.40;10.30;;;;;;;9.50;91.23;99238.75;87238;1295;22476;-80
2022/09/29 07:30:13;;;;;;;12.30;10.30;;;;;;;9.55;91.16;99241.11;87209;1303;22450;-80
2022/09/29 07:32:19;;;;;;;12.80;10.70;;;;;;;9.64;91.50;99237.50;87313;1288;22466;-77
2022/09/29 07:34:24;;;;;;;11.00;9.80;;;;;;;9.75;90.88;99242.35;87233;1302;22506;-79
2022/09/29 07:36:30;;;;;;;11.00;9.60;;;;;;;9.80;89.81;99240.66;87232;1300;23155;-79
2022/09/29 07:38:36;;;;;;;11.10;10.10;;;;;;;9.85;89.74;99239.71;87085;1306;22468;-80
2022/09/29 07:40:44;;;;;;;10.80;9.80;;;;;;;9.90;89.66;99241.89;87200;1299;22436;-80
2022/09/29 07:42:49;;;;;;;12.20;10.10;;;;;;;9.98;90.02;99246.85;87257;1282;25218;-80
2022/09/29 07:44:55;;;;;;;10.40;9.30;;;;;;;10.10;90.48;99247.64;87221;1295;25378;-80
2022/09/29 07:47:00;;;;;;;10.00;8.90;;;;;;;10.19;89.88;99250.29;87144;1305;22488;-79
2022/09/29 07:49:06;;;;;;;11.30;10.30;;;;;;;10.24;89.42;99254.54;87221;1304;24232;-78
2022/09/29 07:51:14;;;;;;;10.80;9.70;;;;;;;10.31;89.20;99256.80;87255;1288;22468;-78
2022/09/29 07:53:20;;;;;;;10.70;9.80;;;;;;;10.41;88.83;99259.56;87216;1304;22599;-78
2022/09/29 07:55:26;;;;;;;11.80;9.80;;;;;;;10.51;88.82;99260.89;87245;1285;22472;-79
2022/09/29 07:57:32;;;;;;;9.00;8.20;;;;;;;10.60;88.95;99265.67;87258;1292;22986;-79
2022/09/29 07:59:38;;;;;;;8.80;8.00;;;;;;;10.71;88.55;99268.69;87213;1303;22471;-80
2022/09/29 08:01:43;;;;;;;9.00;8.20;;;;;;;10.75;86.99;99275.63;87262;1303;24279;-77
2022/09/29 08:03:52;;;;;;;9.40;8.30;;;;;;;10.77;86.47;99276.56;87257;1289;26424;-79
2022/09/29 08:05:58;;;;;;;9.70;8.80;;;;;;;10.77;86.02;99277.58;87271;1300;22481;-78
2022/09/29 08:08:04;;;;;;;9.70;8.80;;;;;;;10.78;86.21;99277.85;87239;1304;22464;-78
2022/09/29 08:10:10;;;;;;;8.60;7.90;;;;;;;10.86;86.43;99276.41;87217;1292;25222;-78
2022/09/29 08:12:16;;;;;;;8.40;7.70;;;;;;;10.95;85.87;99274.34;87185;1286;22497;-78
2022/09/29 08:14:22;;;;;;;8.80;8.10;;;;;;;10.97;85.17;99271.39;87232;1302;22504;-79
2022/09/29 08:16:29;;;;;;;10.50;8.30;;;;;;;10.99;85.55;99274.41;87248;1303;22477;-83
2022/09/29 08:18:35;;;;;;;9.40;8.50;;;;;;;11.02;85.42;99275.14;87216;1292;23882;-79
2022/09/29 08:20:44;;;;;;;10.10;8.30;;;;;;;11.02;84.64;99280.38;87155;1285;22468;-79
2022/09/29 08:22:50;;;;;;;8.90;8.00;;;;;;;11.04;83.76;99282.71;87250;1296;22468;-80
2022/09/29 08:24:56;;;;;;;9.10;8.20;;;;;;;11.10;83.99;99290.01;87234;1286;22455;-80
2022/09/29 08:27:04;;;;;;;8.70;7.90;;;;;;;11.21;83.93;99295.14;87238;1303;22485;-77
2022/09/29 08:29:09;;;;;;;9.10;8.30;;;;;;;11.31;83.86;99295.27;87256;1295;22463;-79
2022/09/29 08:31:19;;;;;;;10.50;7.80;;;;;;;11.40;83.98;99291.97;87241;1303;22461;-79
2022/09/29 08:33:26;;;;;;;9.80;8.10;;;;;;;11.49;83.43;99294.95;87220;1304;22504;-79
2022/09/29 08:35:32;;;;;;;8.80;8.10;;;;;;;11.58;83.86;99301.23;87167;1306;22447;-78
2022/09/29 08:37:38;;;;;;;8.80;8.00;;;;;;;11.67;83.63;99304.49;87215;1287;22490;-79
2022/09/29 08:39:44;;;;;;;8.00;7.00;;;;;;;11.73;82.69;99302.09;87213;1296;22478;-79
2022/09/29 08:41:53;;;;;;;7.40;6.80;;;;;;;11.75;82.13;99302.45;87219;1303;22456;-79
2022/09/29 08:44:02;;;;;;;7.20;6.60;;;;;;;11.77;82.02;99305.64;87241;1303;22476;-79
2022/09/29 08:46:10;;;;;;;7.20;6.50;;;;;;;11.80;82.29;99306.31;87241;1284;22524;-78
2022/09/29 08:48:19;;;;;;;7.00;6.40;;;;;;;11.83;81.85;99306.54;87222;1294;26436;-78
2022/09/29 08:50:32;;;;;;;7.30;6.50;;;;;;;11.89;81.69;99309.36;87202;1302;22475;-79
2022/09/29 08:52:42;;;;;;;7.00;6.50;;;;;;;11.90;80.91;99316.08;87270;1296;22590;-76
2022/09/29 08:54:49;;;;;;;7.90;7.20;;;;;;;11.91;80.60;99318.68;87235;1303;25641;-78
2022/09/29 08:56:54;;;;;;;8.10;7.50;;;;;;;11.92;80.29;99320.02;87126;1289;22612;-78
2022/09/29 08:59:00;;;;;;;7.70;7.10;;;;;;;11.94;80.46;99319.75;87235;1303;22472;-76
2022/09/29 09:01:15;;;;;;;8.70;8.00;;;;;;;11.91;79.42;99325.84;87246;1289;22481;-79
2022/09/29 09:04:04;;;;;;;8.10;7.40;;;;;;;11.86;79.04;99327.19;87218;1302;23064;-78
2022/09/29 09:06:23;;;;;;;7.40;6.70;;;;;;;11.81;79.55;99323.77;87068;1306;22565;-78
2022/09/29 09:08:41;;;;;;;9.40;7.70;;;;;;;11.82;79.52;99325.32;87238;1296;22479;-80
2022/09/29 09:10:50;;;;;;;8.90;7.10;;;;;;;11.82;79.33;99325.29;87205;1289;25644;-78
2022/09/29 09:13:16;;;;;;;7.80;7.10;;;;;;;11.79;78.83;99332.08;87232;1303;22470;-76
2022/09/29 09:15:35;;;;;;;7.70;7.00;;;;;;;11.81;79.15;99334.77;87214;1284;22475;-78
2022/09/29 09:18:14;;;;;;;7.30;6.70;;;;;;;11.82;78.73;99336.98;87213;1303;22471;-77
2022/09/29 09:20:30;;;;;;;7.90;7.20;;;;;;;11.77;78.79;99335.16;87206;1278;22426;-76
2022/09/29 09:22:43;;;;;;;7.60;6.80;;;;;;;11.77;78.46;99339.58;87244;1288;25950;-78
2022/09/29 09:24:56;;;;;;;6.60;6.10;;;;;;;11.78;78.38;99342.32;87142;1299;26550;-79
2022/09/29 09:27:01;;;;;;;7.30;6.70;;;;;;;11.80;78.37;99346.16;87257;1291;22528;-75
2022/09/29 09:29:11;;;;;;;6.70;6.20;;;;;;;11.89;78.31;99344.64;87153;1306;24287;-76
2022/09/29 09:31:19;;;;;;;8.20;7.40;;;;;;;11.96;78.21;99348.91;87230;1291;22474;-75
2022/09/29 09:33:29;;;;;;;7.70;6.90;;;;;;;12.02;77.77;99345.63;87207;1303;24274;-76
2022/09/29 09:35:40;;;;;;;7.60;7.00;;;;;;;12.09;78.24;99344.31;87236;1303;22462;-76
2022/09/29 09:37:46;;;;;;;8.10;7.40;;;;;;;12.19;78.12;99344.96;87247;1301;22518;-78
2022/09/29 09:39:56;;;;;;;7.80;7.20;;;;;;;12.24;78.02;99344.81;87217;1291;22473;-76
2022/09/29 09:42:01;;;;;;;;;;;;;;;12.30;77.90;99346.01;87152;1306;23082;-76
2022/09/29 09:44:12;;;;;;;8.30;7.00;;;;;;;12.30;77.38;99347.74;87203;1295;22450;-77
2022/09/29 09:46:21;;;;;;;6.20;5.70;;;;;;;12.27;77.23;99348.13;87172;1280;22613;-78
2022/09/29 09:48:34;;;;;;;6.50;5.90;;;;;;;12.24;76.66;99354.26;87226;1285;22550;-80
2022/09/29 09:50:45;;;;;;;7.90;7.10;;;;;;;12.23;76.95;99350.14;87229;1303;22884;-80
2022/09/29 09:52:54;;;;;;;7.20;6.50;;;;;;;12.23;76.87;99355.91;87175;1303;22523;-80
2022/09/29 09:55:02;;;;;;;6.70;6.10;;;;;;;12.18;76.36;99359.49;87248;1295;22482;-79
2022/09/29 09:57:39;;;;;;;7.90;7.10;;;;;;;12.11;76.41;99364.99;87240;1295;22492;-80
2022/09/29 10:00:03;;;;;;;8.00;7.30;;;;;;;12.01;76.44;99370.81;87018;1306;22501;-79
2022/09/29 10:02:12;;;;;;;7.90;7.20;;;;;;;11.91;76.25;99372.33;87276;1295;22476;-79
2022/09/29 10:04:18;;;;;;;8.60;7.90;;;;;;;11.86;76.79;99375.42;87226;1286;22490;-80
2022/09/29 10:06:24;;;;;;;8.00;7.20;;;;;;;11.84;76.97;99383.35;87247;1294;22455;-80
2022/09/29 10:08:32;;;;;;;8.20;7.50;;;;;;;11.82;76.72;99383.65;87204;1303;22465;-79
2022/09/29 10:10:47;;;;;;;8.20;7.50;;;;;;;11.75;76.43;99383.16;87280;1285;22490;-80
2022/09/29 10:12:57;;;;;;;9.50;8.50;;;;;;;11.68;76.48;99389.87;87223;1284;22450;-80
2022/09/29 10:15:11;;;;;;;9.70;8.90;;;;;;;11.63;76.41;99389.10;87311;1284;22475;-80
2022/09/29 10:17:17;;;;;;;9.80;8.90;;;;;;;11.53;75.78;99391.98;87253;1296;22480;-80
2022/09/29 10:19:24;;;;;;;10.20;9.30;;;;;;;11.47;76.56;99393.02;87231;1299;26494;-78